Time;durP1;ratioP1;P1;durP2;ratioP2;P2;SDS_P1;SDS_P2;PMS_P1;PMS_P2;Temp;Humidity;BMP_temperature;BMP_pressure;BME280_temperature;BME280_humidity;BME280_pressure;Samples;Min_cycle;Max_cycle;Signal;HPM_P1;HPM_P2
2022/08/22 00:00:17;;;;;;;9.02;6.10;;;;;;;18.61;100.00;93840.84;5058488;22;20237;-62
2022/08/22 00:03:08;;;;;;;7.97;6.38;;;;;;;18.43;100.00;93818.28;5011559;28;20201;-61
2022/08/22 00:05:53;;;;;;;6.15;5.55;;;;;;;18.59;100.00;93837.66;5032398;28;20181;-62
2022/08/22 00:08:37;;;;;;;6.68;5.88;;;;;;;18.69;100.00;93830.34;5032166;28;20224;-60
2022/08/22 00:11:15;;;;;;;5.95;5.35;;;;;;;18.59;100.00;93831.72;5032415;28;20190;-61
2022/08/22 00:13:52;;;;;;;6.88;5.65;;;;;;;18.51;100.00;93831.91;5032451;28;20218;-60
2022/08/22 00:16:37;;;;;;;6.85;6.15;;;;;;;18.54;100.00;93836.69;5032361;28;20232;-61
2022/08/22 00:19:24;;;;;;;8.77;7.22;;;;;;;18.58;100.00;93843.03;5014701;28;20202;-62
2022/08/22 00:21:58;;;;;;;12.48;7.57;;;;;;;18.56;100.00;93819.25;5032208;28;20623;-63
2022/08/22 00:24:47;;;;;;;10.10;7.50;;;;;;;18.53;100.00;93824.78;5047739;22;20244;-63
2022/08/22 00:27:17;;;;;;;9.68;8.13;;;;;;;18.60;100.00;93820.44;5050700;28;20209;-64
2022/08/22 00:29:53;;;;;;;10.02;8.93;;;;;;;18.60;100.00;93820.44;5051969;28;20220;-61
2022/08/22 00:32:58;;;;;;;14.10;8.27;;;;;;;18.58;100.00;93817.28;5033906;28;20201;-62
2022/08/22 00:35:41;;;;;;;9.30;8.05;;;;;;;18.63;100.00;93820.84;5047592;28;20362;-61
2022/08/22 00:38:15;;;;;;;10.60;8.18;;;;;;;18.66;100.00;93819.66;5051852;28;20212;-60
2022/08/22 00:41:06;;;;;;;9.55;8.20;;;;;;;18.70;100.00;93818.25;5051761;28;20231;-63
2022/08/22 00:44:06;;;;;;;9.80;7.63;;;;;;;18.66;100.00;93815.31;5051659;28;20267;-64
2022/08/22 00:46:43;;;;;;;14.25;8.35;;;;;;;18.72;100.00;93814.50;5051629;28;20205;-61
2022/08/22 00:49:40;;;;;;;10.93;9.40;;;;;;;18.59;100.00;93804.19;5051763;28;20209;-61
2022/08/22 00:52:18;;;;;;;13.25;10.30;;;;;;;18.63;100.00;93802.00;5051479;28;20221;-61
2022/08/22 00:55:02;;;;;;;11.75;9.60;;;;;;;18.65;100.00;93818.06;5051556;28;20217;-63
2022/08/22 00:57:37;;;;;;;13.93;9.55;;;;;;;18.51;100.00;93801.81;5033467;28;20664;-61
2022/08/22 01:00:52;;;;;;;15.73;10.43;;;;;;;18.63;100.00;93810.53;5033499;28;20698;-61
2022/08/22 01:03:48;;;;;;;15.40;10.23;;;;;;;18.72;100.00;93817.09;4970762;28;20288;-63
2022/08/22 01:07:01;;;;;;;16.23;11.10;;;;;;;18.60;100.00;93805.81;4954284;28;20270;-63
2022/08/22 01:10:00;;;;;;;12.65;10.45;;;;;;;18.68;100.00;93807.38;4970608;28;20633;-64
2022/08/22 01:12:49;;;;;;;13.10;10.63;;;;;;;18.66;100.00;93811.94;4970624;28;20199;-62
2022/08/22 01:15:23;;;;;;;15.68;10.57;;;;;;;18.68;100.00;93807.38;5039008;28;20226;-63
2022/08/22 01:18:01;;;;;;;12.73;10.40;;;;;;;18.63;100.00;93814.88;5051183;28;20269;-60
2022/08/22 01:21:04;;;;;;;17.38;11.27;;;;;;;18.70;100.00;93813.91;5033160;28;20221;-63
2022/08/22 01:23:44;;;;;;;11.82;10.35;;;;;;;18.71;100.00;93812.09;5051197;28;20714;-63
2022/08/22 01:26:47;;;;;;;13.45;11.57;;;;;;;18.82;100.00;93808.94;5050993;28;20193;-62
2022/08/22 01:29:19;;;;;;;12.93;11.07;;;;;;;18.83;100.00;93807.94;5051196;28;20221;-65
2022/08/22 01:32:03;;;;;;;13.73;11.02;;;;;;;18.83;100.00;93810.50;5049725;28;20741;-62
2022/08/22 01:34:47;;;;;;;12.57;10.75;;;;;;;18.86;100.00;93817.84;5050937;28;20699;-61
2022/08/22 01:37:53;;;;;;;15.13;12.13;;;;;;;18.81;100.00;93821.00;5049350;28;20203;-63
2022/08/22 01:40:49;;;;;;;17.85;14.55;;;;;;;18.73;100.00;93821.22;5014413;28;20213;-61
2022/08/22 01:43:39;;;;;;;17.90;14.00;;;;;;;18.74;100.00;93817.66;5050576;28;20722;-61
2022/08/22 01:46:36;;;;;;;13.77;11.43;;;;;;;18.84;100.00;93822.41;5032987;28;20192;-63
2022/08/22 01:49:16;;;;;;;12.10;10.25;;;;;;;19.02;100.00;93820.00;5049637;28;20612;-61
2022/08/22 01:51:49;;;;;;;12.93;10.30;;;;;;;18.97;100.00;93818.03;5050802;28;20186;-63
2022/08/22 01:54:32;;;;;;;14.38;11.13;;;;;;;19.11;100.00;93819.56;5050735;28;20205;-62
2022/08/22 01:57:02;;;;;;;13.20;10.98;;;;;;;19.02;100.00;93812.28;5050608;28;20181;-61
2022/08/22 01:59:51;;;;;;;13.38;10.88;;;;;;;19.09;100.00;93824.13;5050747;28;20227;-61
2022/08/22 02:02:17;;;;;;;21.33;16.98;;;;;;;19.04;100.00;93818.00;5032938;28;20181;-60
2022/08/22 02:05:05;;;;;;;30.27;23.75;;;;;;;18.89;100.00;93814.84;5050497;28;20362;-62
2022/08/22 02:07:56;;;;;;;21.25;15.70;;;;;;;18.87;100.00;93812.50;5050335;28;20210;-63
2022/08/22 02:10:40;;;;;;;17.15;14.05;;;;;;;18.98;100.00;93818.81;5032691;28;20308;-61
2022/08/22 02:13:11;;;;;;;14.55;11.60;;;;;;;18.93;100.00;93811.69;5032593;28;20201;-61
2022/08/22 02:15:39;;;;;;;15.38;11.68;;;;;;;18.89;100.00;93817.44;5050472;28;20193;-60
2022/08/22 02:18:05;;;;;;;13.07;10.43;;;;;;;18.89;100.00;93812.28;5050378;28;20194;-62
2022/08/22 02:20:40;;;;;;;14.75;10.95;;;;;;;19.01;100.00;93820.97;5032457;28;20587;-61
2022/08/22 02:23:19;;;;;;;15.10;12.95;;;;;;;18.90;100.00;93816.47;5032263;28;20545;-61
2022/08/22 02:26:02;;;;;;;17.63;14.38;;;;;;;18.79;100.00;93809.31;5050227;28;20186;-61
2022/08/22 02:28:49;;;;;;;18.67;14.63;;;;;;;18.86;100.00;93821.22;5050151;28;20267;-64
2022/08/22 02:31:24;;;;;;;18.33;12.50;;;;;;;18.94;100.00;93815.88;5050238;28;20651;-62
2022/08/22 02:33:58;;;;;;;14.20;12.50;;;;;;;18.83;100.00;93815.66;5048759;28;20602;-63
2022/08/22 02:36:40;;;;;;;15.77;13.35;;;;;;;18.71;100.00;93806.97;5032281;28;20227;-62
2022/08/22 02:39:14;;;;;;;15.68;12.07;;;;;;;18.80;100.00;93811.72;5050656;28;20206;-64
2022/08/22 02:42:02;;;;;;;17.23;12.32;;;;;;;18.74;100.00;93815.09;5049968;28;20642;-60
2022/08/22 02:44:31;;;;;;;19.63;12.60;;;;;;;18.76;100.00;93823.41;5049925;28;20217;-62
2022/08/22 02:47:50;;;;;;;15.57;12.68;;;;;;;18.75;100.00;93813.28;5050104;28;20209;-61
2022/08/22 02:50:37;;;;;;;17.98;13.32;;;;;;;18.68;100.00;93817.66;4971798;28;20254;-61
2022/08/22 02:53:45;;;;;;;16.52;12.55;;;;;;;18.68;100.00;93822.81;4972542;28;20204;-64
2022/08/22 02:56:34;;;;;;;18.70;13.30;;;;;;;18.58;100.00;93820.66;5035290;28;20694;-61
2022/08/22 02:59:27;;;;;;;18.75;13.40;;;;;;;18.52;100.00;93823.22;5053392;28;20304;-60
2022/08/22 03:01:54;;;;;;;19.02;14.13;;;;;;;18.50;100.00;93831.16;5035282;28;20229;-60
2022/08/22 03:04:22;;;;;;;17.95;14.27;;;;;;;18.41;100.00;93825.38;5053340;28;20213;-63
2022/08/22 03:07:13;;;;;;;20.13;14.55;;;;;;;18.35;100.00;93823.59;5053201;28;20592;-63
2022/08/22 03:09:43;;;;;;;17.30;12.93;;;;;;;18.22;100.00;93827.94;5053327;28;20221;-62
2022/08/22 03:12:25;;;;;;;16.35;13.65;;;;;;;18.09;100.00;93825.31;5035075;28;20689;-62
2022/08/22 03:15:15;;;;;;;18.85;13.65;;;;;;;18.05;100.00;93830.06;5053336;28;20300;-60
2022/08/22 03:17:50;;;;;;;19.83;13.75;;;;;;;17.98;100.00;93828.44;5034995;28;20190;-62
2022/08/22 03:20:40;;;;;;;19.27;14.27;;;;;;;18.03;100.00;93831.25;5034955;28;20212;-63
2022/08/22 03:23:30;;;;;;;17.98;13.18;;;;;;;18.03;100.00;93829.47;5052893;28;20212;-62
2022/08/22 03:26:27;;;;;;;22.33;14.80;;;;;;;18.02;100.00;93829.66;5052725;28;20200;-62
2022/08/22 03:29:04;;;;;;;18.23;12.63;;;;;;;18.08;100.00;93837.38;5008446;28;20225;-60
2022/08/22 03:31:31;;;;;;;19.02;13.90;;;;;;;18.07;100.00;93837.59;5052801;28;20186;-62
2022/08/22 03:34:21;;;;;;;18.20;13.85;;;;;;;18.06;100.00;93839.38;5034645;28;20221;-64
2022/08/22 03:37:05;;;;;;;17.00;13.70;;;;;;;18.06;100.00;93838.59;5051279;28;20196;-63
2022/08/22 03:39:42;;;;;;;17.38;13.40;;;;;;;18.03;100.00;93834.63;5034661;28;20300;-62
2022/08/22 03:42:26;;;;;;;20.15;13.95;;;;;;;17.98;100.00;93831.81;5052831;28;20181;-62
2022/08/22 03:45:27;;;;;;;18.05;13.65;;;;;;;18.02;100.00;93837.38;5052810;28;20293;-60
2022/08/22 03:48:11;;;;;;;21.25;14.38;;;;;;;17.97;100.00;93834.59;5052376;28;20576;-62
2022/08/22 03:51:30;;;;;;;17.00;14.13;;;;;;;18.03;100.00;93837.19;5052584;28;20799;-62
2022/08/22 03:54:26;;;;;;;18.60;14.02;;;;;;;17.98;100.00;93829.25;4971755;28;20243;-60
2022/08/22 03:57:29;;;;;;;18.48;12.57;;;;;;;18.21;100.00;93839.19;4955118;28;20210;-62
2022/08/22 03:59:57;;;;;;;17.65;13.00;;;;;;;18.24;100.00;93833.69;5034857;28;20209;-64
2022/08/22 04:02:40;;;;;;;16.50;13.50;;;;;;;18.31;100.00;93827.53;5034304;28;20259;-62
2022/08/22 04:05:28;;;;;;;19.42;13.73;;;;;;;18.35;100.00;93831.31;5034330;28;20594;-63
2022/08/22 04:08:16;;;;;;;20.00;14.45;;;;;;;18.36;100.00;93832.09;5052134;28;20674;-63
2022/08/22 04:11:20;;;;;;;21.70;13.80;;;;;;;18.38;100.00;93830.91;5014970;28;20246;-62
2022/08/22 04:14:25;;;;;;;18.33;13.80;;;;;;;18.52;100.00;93833.53;5052246;28;20259;-65
2022/08/22 04:17:27;;;;;;;18.60;12.93;;;;;;;18.61;100.00;93832.31;5052104;28;20239;-63
2022/08/22 04:19:56;;;;;;;19.83;13.57;;;;;;;18.65;100.00;93836.06;5050660;28;20631;-61
2022/08/22 04:22:45;;;;;;;16.13;12.73;;;;;;;18.80;100.00;93841.81;5034118;28;20192;-61
2022/08/22 04:25:21;;;;;;;16.63;12.25;;;;;;;19.04;100.00;93833.47;5052090;28;20241;-61
2022/08/22 04:27:54;;;;;;;15.30;13.10;;;;;;;19.12;100.00;93846.13;5052012;28;20209;-62
2022/08/22 04:30:38;;;;;;;18.25;12.65;;;;;;;19.17;100.00;93849.69;5052282;28;20205;-60
2022/08/22 04:33:13;;;;;;;17.15;12.98;;;;;;;19.19;100.00;93852.06;5051969;28;20192;-63
2022/08/22 04:36:14;;;;;;;14.35;12.52;;;;;;;19.01;100.00;93849.31;5051798;28;20189;-62
2022/08/22 04:39:04;;;;;;;16.80;12.55;;;;;;;19.18;100.00;93859.03;5051979;28;20247;-61
2022/08/22 04:41:51;;;;;;;16.67;12.73;;;;;;;19.16;100.00;93862.78;5034264;28;20185;-60
2022/08/22 04:44:34;;;;;;;17.75;12.05;;;;;;;19.17;100.00;93856.63;5051512;28;20304;-60
2022/08/22 04:47:38;;;;;;;16.23;11.30;;;;;;;19.37;100.00;93859.22;5051719;28;20236;-60
2022/08/22 04:50:03;;;;;;;17.52;12.25;;;;;;;19.14;100.00;93851.88;4971143;28;20211;-64
2022/08/22 04:52:49;;;;;;;16.85;12.32;;;;;;;19.12;100.00;93848.72;5018549;28;20190;-62
2022/08/22 04:55:23;;;;;;;15.15;12.10;;;;;;;19.09;100.00;93852.47;5051626;28;20292;-60
2022/08/22 04:58:07;;;;;;;16.48;12.50;;;;;;;19.17;100.00;93851.47;5051684;28;20183;-60
2022/08/22 05:00:53;;;;;;;19.50;16.98;;;;;;;19.50;100.00;93870.25;5051753;28;20181;-61
2022/08/22 05:03:22;;;;;;;81.82;74.35;;;;;;;19.72;100.00;93863.84;5051561;28;20204;-62
2022/08/22 05:05:50;;;;;;;36.75;33.00;;;;;;;19.94;100.00;93885.78;5051534;28;20663;-62
2022/08/22 05:08:23;;;;;;;20.45;17.42;;;;;;;20.20;100.00;93897.00;5051559;28;20590;-60
2022/08/22 05:10:50;;;;;;;19.90;14.35;;;;;;;20.30;100.00;93902.50;5051447;28;20192;-62
2022/08/22 05:13:52;;;;;;;16.17;13.60;;;;;;;20.29;100.00;93903.50;5050753;28;20224;-61
2022/08/22 05:16:24;;;;;;;17.33;12.02;;;;;;;20.65;100.00;93890.75;5047355;28;20201;-60
2022/08/22 05:18:59;;;;;;;15.95;12.05;;;;;;;20.63;100.00;93878.06;5051309;28;20202;-61
2022/08/22 05:21:30;;;;;;;15.60;11.75;;;;;;;20.77;100.00;93909.75;5033129;28;20181;-63
2022/08/22 05:24:02;;;;;;;15.45;11.98;;;;;;;21.06;100.00;93919.50;5051040;28;20276;-60
2022/08/22 05:26:28;;;;;;;28.42;17.75;;;;;;;21.40;100.00;93877.63;5051161;28;20276;-63
2022/08/22 05:29:04;;;;;;;19.23;13.55;;;;;;;21.40;100.00;93944.84;5051391;28;20217;-61
2022/08/22 05:31:33;;;;;;;17.08;12.82;;;;;;;21.29;100.00;93940.38;5050953;28;20560;-64
2022/08/22 05:34:22;;;;;;;17.70;12.27;;;;;;;21.11;100.00;93924.81;5051371;28;20205;-61
2022/08/22 05:37:09;;;;;;;13.98;11.45;;;;;;;20.63;100.00;93914.22;5033360;28;20577;-61
2022/08/22 05:39:38;;;;;;;21.08;13.15;;;;;;;20.36;100.00;93896.53;5050332;28;20285;-62
2022/08/22 05:42:04;;;;;;;18.23;12.98;;;;;;;20.15;100.00;93889.06;5049727;28;20186;-64
2022/08/22 05:44:36;;;;;;;17.38;12.43;;;;;;;20.39;100.00;93893.50;5050888;28;20209;-60
2022/08/22 05:47:31;;;;;;;17.17;12.68;;;;;;;20.61;100.00;93915.41;5050915;28;20209;-62
2022/08/22 05:50:00;;;;;;;18.10;11.88;;;;;;;20.68;100.00;93934.25;5025762;28;20229;-61
2022/08/22 05:53:01;;;;;;;17.50;11.93;;;;;;;20.93;100.00;93930.69;5050981;28;20174;-61
2022/08/22 05:55:33;;;;;;;18.35;11.80;;;;;;;21.16;100.00;93963.75;5050582;28;20228;-60
2022/08/22 05:58:02;;;;;;;15.95;12.10;;;;;;;21.15;100.00;93974.31;5051120;28;20189;-60
2022/08/22 06:00:36;;;;;;;17.30;12.00;;;;;;;21.18;100.00;93964.34;5032690;28;20216;-60
2022/08/22 06:03:14;;;;;;;14.75;11.50;;;;;;;21.41;100.00;93979.28;5050840;28;20189;-63
2022/08/22 06:05:49;;;;;;;16.27;10.55;;;;;;;21.54;100.00;93992.88;5050806;28;20189;-61
2022/08/22 06:09:00;;;;;;;14.20;11.93;;;;;;;21.65;100.00;94001.75;5050280;28;20209;-61
2022/08/22 06:11:39;;;;;;;14.85;11.25;;;;;;;21.92;100.00;94002.31;5013316;28;20225;-60
2022/08/22 06:14:27;;;;;;;13.32;10.70;;;;;;;21.96;100.00;93993.91;5050833;28;20209;-61
2022/08/22 06:17:17;;;;;;;14.20;11.80;;;;;;;22.10;100.00;93981.63;5050660;28;20251;-60
2022/08/22 06:19:47;;;;;;;14.23;10.55;;;;;;;22.08;100.00;94002.53;5032460;28;20216;-61
2022/08/22 06:22:44;;;;;;;14.73;11.10;;;;;;;22.14;100.00;94004.25;5050253;28;20185;-62
2022/08/22 06:25:17;;;;;;;15.35;11.85;;;;;;;22.26;100.00;94004.34;5063780;22;20244;-60
2022/08/22 06:27:47;;;;;;;17.13;11.48;;;;;;;22.10;100.00;94010.88;5053691;28;20220;-61
2022/08/22 06:30:15;;;;;;;15.73;12.00;;;;;;;21.88;100.00;94001.94;5053571;28;20202;-61
2022/08/22 06:32:47;;;;;;;13.63;11.50;;;;;;;22.14;100.00;94008.66;5035673;28;20198;-64
2022/08/22 06:36:29;;;;;;;14.82;11.75;;;;;;;22.47;100.00;94037.56;5053994;28;20694;-62
2022/08/22 06:38:19;;;;;;;13.70;9.93;;;;;;;22.23;100.00;94021.09;5053492;28;20201;-63
2022/08/22 06:40:45;;;;;;;15.80;11.85;;;;;;;22.23;100.00;93995.19;5053771;28;20201;-62
2022/08/22 06:43:11;;;;;;;13.07;9.50;;;;;;;22.35;100.00;94003.81;5053371;28;20268;-62
2022/08/22 06:45:38;;;;;;;11.55;9.27;;;;;;;22.62;100.00;94030.25;5035400;28;20677;-62
2022/08/22 06:48:03;;;;;;;14.52;9.88;;;;;;;22.64;100.00;94061.13;5053227;28;20210;-63
2022/08/22 06:50:31;;;;;;;10.75;8.68;;;;;;;22.80;100.00;94058.72;5024599;23;20283;-61
2022/08/22 06:53:09;;;;;;;12.10;8.75;;;;;;;22.98;100.00;94056.09;5033526;28;20198;-65
2022/08/22 06:55:39;;;;;;;13.02;8.88;;;;;;;23.13;100.00;94055.66;5013892;28;20194;-63
2022/08/22 06:58:13;;;;;;;11.13;8.93;;;;;;;23.11;100.00;94091.41;5013641;28;20229;-62
2022/08/22 07:00:41;;;;;;;10.80;8.73;;;;;;;23.15;100.00;94046.66;5059512;22;20617;-61
2022/08/22 07:03:32;;;;;;;10.27;8.98;;;;;;;22.91;100.00;94055.38;5053360;28;20635;-63
2022/08/22 07:05:58;;;;;;;15.35;9.77;;;;;;;22.81;100.00;94033.56;5052932;28;20580;-61
2022/08/22 07:08:28;;;;;;;9.95;8.45;;;;;;;23.02;100.00;94020.94;5053028;28;20216;-61
2022/08/22 07:11:11;;;;;;;14.77;9.07;;;;;;;23.18;100.00;94067.00;5053066;28;20580;-62
2022/08/22 07:13:41;;;;;;;10.68;8.90;;;;;;;23.39;100.00;94051.94;5053098;28;20714;-62
2022/08/22 07:16:08;;;;;;;12.20;8.93;;;;;;;23.26;100.00;94081.44;5053188;28;20702;-60
2022/08/22 07:18:45;;;;;;;11.43;8.50;;;;;;;23.25;100.00;94067.66;5053245;28;20250;-62
2022/08/22 07:21:41;;;;;;;14.13;8.88;;;;;;;23.58;100.00;94102.75;5034819;28;20221;-62
2022/08/22 07:24:08;;;;;;;11.50;7.72;;;;;;;23.50;100.00;94090.91;5052944;28;20251;-64
2022/08/22 07:26:52;;;;;;;11.23;8.65;;;;;;;23.65;100.00;94106.84;5052677;28;20188;-64
2022/08/22 07:29:44;;;;;;;11.15;8.50;;;;;;;23.55;100.00;94085.03;5034792;28;20232;-60
2022/08/22 07:32:25;;;;;;;10.73;7.88;;;;;;;23.60;100.00;94054.81;5024384;28;20263;-62
2022/08/22 07:34:53;;;;;;;8.52;7.63;;;;;;;23.78;100.00;94111.03;5052296;28;20209;-61
2022/08/22 07:37:29;;;;;;;10.70;8.70;;;;;;;23.93;100.00;94099.22;5052293;28;20181;-60
2022/08/22 07:40:02;;;;;;;9.48;8.05;;;;;;;24.05;100.00;94094.06;5052868;28;20358;-61
2022/08/22 07:42:50;;;;;;;10.63;9.50;;;;;;;24.35;100.00;94112.09;5052424;28;20661;-61
2022/08/22 07:45:34;;;;;;;10.05;8.63;;;;;;;24.53;100.00;94088.59;5052433;28;20210;-61
2022/08/22 07:48:12;;;;;;;12.05;9.57;;;;;;;24.58;100.00;94120.69;5052360;28;20365;-61
2022/08/22 07:51:00;;;;;;;10.50;9.13;;;;;;;24.61;100.00;94138.41;5052346;28;20211;-61
2022/08/22 07:53:38;;;;;;;8.88;7.88;;;;;;;24.64;100.00;94100.78;5034202;28;20235;-61
2022/08/22 07:56:06;;;;;;;11.10;9.15;;;;;;;24.64;100.00;94171.78;5052466;28;20239;-62
2022/08/22 07:58:38;;;;;;;12.68;8.65;;;;;;;24.61;100.00;94124.63;5052423;28;20209;-62
2022/08/22 08:01:07;;;;;;;16.42;9.70;;;;;;;24.42;100.00;94113.56;5052268;28;20194;-62
2022/08/22 08:03:34;;;;;;;11.10;8.63;;;;;;;24.07;100.00;94076.44;5034193;28;20206;-66
2022/08/22 08:06:00;;;;;;;13.30;8.80;;;;;;;23.95;100.00;94107.56;5034180;28;20193;-65
2022/08/22 08:08:40;;;;;;;13.23;9.93;;;;;;;23.62;100.00;94067.56;5051980;28;20722;-65
2022/08/22 08:11:10;;;;;;;13.13;8.77;;;;;;;23.73;100.00;94074.59;5033945;28;20182;-65
2022/08/22 08:13:44;;;;;;;12.48;9.25;;;;;;;23.57;100.00;94070.03;5034056;28;20714;-61
2022/08/22 08:16:16;;;;;;;13.23;9.63;;;;;;;23.59;100.00;94049.84;5051872;28;20234;-62
2022/08/22 08:18:45;;;;;;;15.60;8.45;;;;;;;23.63;100.00;94044.00;5052157;28;20244;-63
2022/08/22 08:21:25;;;;;;;9.93;8.75;;;;;;;23.96;100.00;93997.47;5051831;28;20217;-60
2022/08/22 08:23:53;;;;;;;13.32;8.75;;;;;;;24.24;100.00;94059.13;5052097;28;20220;-66
2022/08/22 08:26:34;;;;;;;10.50;8.30;;;;;;;24.44;100.00;94038.00;5033714;28;20193;-61
2022/08/22 08:29:02;;;;;;;12.02;7.97;;;;;;;24.60;100.00;94045.88;5033963;28;20216;-62
2022/08/22 08:31:38;;;;;;;12.45;8.60;;;;;;;24.78;100.00;94102.94;5051807;28;20276;-61
2022/08/22 08:34:13;;;;;;;10.88;8.73;;;;;;;25.12;100.00;94082.22;5034123;28;20263;-61
2022/08/22 08:37:01;;;;;;;9.43;8.18;;;;;;;25.42;100.00;94103.63;5051889;28;20196;-62
2022/08/22 08:39:35;;;;;;;10.43;8.07;;;;;;;25.68;100.00;94148.09;5052007;28;20224;-62
2022/08/22 08:42:28;;;;;;;9.82;8.70;;;;;;;25.60;100.00;94124.25;5051610;28;20190;-61
2022/08/22 08:45:05;;;;;;;10.88;8.52;;;;;;;25.60;100.00;94127.66;5051761;28;20216;-60
2022/08/22 08:47:57;;;;;;;11.35;8.93;;;;;;;25.45;100.00;94126.59;5050626;28;20227;-62
2022/08/22 08:50:50;;;;;;;10.15;8.00;;;;;;;25.36;100.00;94086.31;5051409;28;20220;-64
2022/08/22 08:53:18;;;;;;;10.90;8.73;;;;;;;25.30;99.92;94123.69;5052204;28;20189;-61
2022/08/22 08:55:56;;;;;;;10.57;8.55;;;;;;;25.24;100.00;94114.19;5033423;28;20204;-65
2022/08/22 08:58:47;;;;;;;10.73;8.70;;;;;;;25.58;98.84;94136.72;5051489;28;20185;-60
2022/08/22 09:01:15;;;;;;;13.15;9.32;;;;;;;25.42;96.33;94186.91;5051392;28;20186;-60
2022/08/22 09:04:15;;;;;;;10.95;9.77;;;;;;;24.87;98.49;94121.56;5051494;28;20694;-61
2022/08/22 09:07:13;;;;;;;14.80;9.38;;;;;;;24.85;100.00;94081.97;5051161;28;20240;-62
2022/08/22 09:09:47;;;;;;;12.52;8.60;;;;;;;24.90;99.95;94101.09;5051423;28;20305;-60
2022/08/22 09:12:24;;;;;;;13.45;8.57;;;;;;;25.24;100.00;94093.38;5051261;28;20624;-61
2022/08/22 09:15:00;;;;;;;15.13;9.30;;;;;;;25.29;98.66;94119.50;5051226;28;20219;-61
2022/08/22 09:17:44;;;;;;;10.68;8.35;;;;;;;25.26;97.20;94138.19;5051052;28;20654;-65
2022/08/22 09:20:33;;;;;;;14.40;8.77;;;;;;;25.52;98.87;94111.59;5051097;28;20221;-62
2022/08/22 09:23:17;;;;;;;9.52;7.75;;;;;;;25.37;95.18;94182.38;5005087;28;20583;-63
2022/08/22 09:26:01;;;;;;;8.23;7.43;;;;;;;25.21;93.33;94198.72;5051160;28;20197;-62
2022/08/22 09:28:47;;;;;;;11.15;7.65;;;;;;;25.49;93.02;94206.59;5051130;28;20701;-62
2022/08/22 09:31:26;;;;;;;8.55;7.60;;;;;;;25.66;93.00;94196.22;5051057;28;20193;-61
2022/08/22 09:34:12;;;;;;;9.55;8.23;;;;;;;25.56;92.85;94188.22;5032760;28;20755;-64
2022/08/22 09:36:55;;;;;;;10.73;7.82;;;;;;;25.36;97.18;94107.13;5050668;28;20185;-62
2022/08/22 09:39:39;;;;;;;12.45;7.53;;;;;;;25.72;95.72;94130.97;5032707;28;20209;-63
2022/08/22 09:42:16;;;;;;;14.55;8.05;;;;;;;26.42;91.75;94206.91;5032800;28;20185;-63
2022/08/22 09:45:04;;;;;;;13.15;7.60;;;;;;;27.12;80.87;94206.34;5050578;28;20544;-64
2022/08/22 09:47:57;;;;;;;9.90;8.00;;;;;;;27.29;75.02;94247.03;5050376;28;20221;-64
2022/08/22 09:50:43;;;;;;;8.65;7.55;;;;;;;27.72;70.28;94267.16;5050576;28;20217;-62
2022/08/22 09:53:24;;;;;;;8.23;7.28;;;;;;;28.27;68.32;94263.56;5050850;28;20189;-64
2022/08/22 09:56:02;;;;;;;8.27;7.38;;;;;;;28.65;68.05;94261.56;5032660;28;20283;-64
2022/08/22 09:58:43;;;;;;;8.75;7.57;;;;;;;28.12;67.83;94231.03;5051941;28;20209;-64
2022/08/22 10:01:56;;;;;;;7.95;7.15;;;;;;;27.95;67.51;94217.28;5054045;28;20174;-64
2022/08/22 10:04:44;;;;;;;7.78;6.97;;;;;;;27.72;68.50;94183.56;5009178;28;20734;-63
2022/08/22 10:07:40;;;;;;;8.13;7.30;;;;;;;28.50;64.30;94264.06;5053676;28;20653;-61
2022/08/22 10:10:38;;;;;;;8.07;7.22;;;;;;;28.89;64.75;94243.69;5036009;28;20697;-64
2022/08/22 10:13:31;;;;;;;9.90;7.55;;;;;;;28.86;65.26;94231.09;5032797;28;20217;-63
2022/08/22 10:16:13;;;;;;;9.27;7.47;;;;;;;29.34;63.05;94261.50;5053762;28;20239;-61
2022/08/22 10:18:57;;;;;;;12.27;8.55;;;;;;;29.44;64.42;94219.63;5054321;28;20220;-62
2022/08/22 10:21:34;;;;;;;9.45;7.45;;;;;;;29.68;63.85;94215.53;5053785;28;20185;-63
2022/08/22 10:24:32;;;;;;;8.77;6.45;;;;;;;29.34;59.44;94298.97;5035828;28;20213;-62
2022/08/22 10:27:06;;;;;;;7.53;6.80;;;;;;;29.59;59.43;94295.69;5019266;28;20233;-64
2022/08/22 10:30:01;;;;;;;10.90;7.43;;;;;;;30.03;58.41;94280.41;5053480;28;20225;-60
2022/08/22 10:33:02;;;;;;;8.05;6.85;;;;;;;30.67;57.54;94250.06;5053396;28;20243;-63
2022/08/22 10:35:53;;;;;;;8.23;6.55;;;;;;;30.73;55.83;94209.63;5005560;28;20364;-63
2022/08/22 10:38:31;;;;;;;7.70;6.30;;;;;;;30.47;54.63;94193.13;5062250;22;20189;-62
2022/08/22 10:41:07;;;;;;;10.07;7.28;;;;;;;30.76;55.90;94158.44;5012736;28;20217;-63
2022/08/22 10:43:41;;;;;;;7.68;6.65;;;;;;;31.42;54.21;94184.28;5013839;28;20268;-64
2022/08/22 10:46:18;;;;;;;8.20;6.65;;;;;;;31.44;52.74;94197.94;5013971;28;20205;-62
2022/08/22 10:48:45;;;;;;;7.72;6.97;;;;;;;30.84;51.96;94197.28;5013315;28;20253;-61
2022/08/22 10:51:35;;;;;;;7.28;6.57;;;;;;;30.72;56.71;94105.69;5013620;28;20569;-63
2022/08/22 10:54:15;;;;;;;8.18;7.22;;;;;;;31.02;54.39;94155.50;5013942;28;20253;-61
2022/08/22 10:57:36;;;;;;;8.40;6.85;;;;;;;31.10;54.94;94144.44;5013470;28;20194;-64
2022/08/22 11:00:18;;;;;;;8.55;6.80;;;;;;;31.33;54.99;94137.78;4972537;28;20251;-63
2022/08/22 11:03:00;;;;;;;7.78;6.97;;;;;;;32.01;54.62;94136.09;4991792;28;20191;-64
2022/08/22 11:05:41;;;;;;;9.25;7.38;;;;;;;32.40;52.47;94180.78;4995545;28;20593;-62
2022/08/22 11:08:38;;;;;;;9.70;7.30;;;;;;;32.16;51.81;94180.69;4995579;28;20222;-65
2022/08/22 11:11:08;;;;;;;7.57;6.88;;;;;;;31.83;50.85;94182.22;5012593;28;20202;-64
2022/08/22 11:13:58;;;;;;;8.38;7.32;;;;;;;32.13;50.94;94173.34;5013809;28;20219;-63
2022/08/22 11:16:39;;;;;;;13.07;7.97;;;;;;;30.33;54.38;94091.59;5013321;28;20242;-61
2022/08/22 11:19:13;;;;;;;12.57;7.32;;;;;;;30.28;54.08;94096.81;5013432;28;20268;-64
2022/08/22 11:21:48;;;;;;;8.80;8.00;;;;;;;30.11;55.27;94078.75;5013300;28;20198;-63
2022/08/22 11:24:34;;;;;;;9.77;8.20;;;;;;;29.59;56.51;94038.88;5013234;28;20209;-62
2022/08/22 11:27:07;;;;;;;9.82;7.50;;;;;;;29.95;57.19;94037.84;5013050;28;20221;-64
2022/08/22 11:29:38;;;;;;;8.32;7.13;;;;;;;30.76;56.61;94067.34;4995209;28;20218;-63
2022/08/22 11:32:24;;;;;;;8.10;7.30;;;;;;;30.65;56.73;94050.03;5007376;23;20721;-62
2022/08/22 11:35:25;;;;;;;8.50;6.78;;;;;;;30.15;56.55;94058.00;5032669;28;20246;-64
2022/08/22 11:38:12;;;;;;;9.05;7.78;;;;;;;28.94;59.58;93990.59;5032836;28;20215;-64
2022/08/22 11:40:46;;;;;;;7.95;7.05;;;;;;;29.44;60.40;93986.47;5032592;28;20182;-65
2022/08/22 11:43:24;;;;;;;9.50;7.28;;;;;;;28.85;60.37;93976.41;5032465;28;20289;-63
2022/08/22 11:45:55;;;;;;;8.00;6.93;;;;;;;29.55;58.60;93996.66;5032571;28;20197;-63
2022/08/22 11:48:48;;;;;;;8.43;7.03;;;;;;;29.81;56.98;94042.84;5032994;28;20224;-63
2022/08/22 11:51:43;;;;;;;10.77;8.02;;;;;;;29.01;60.64;93977.22;5032536;28;20657;-62
2022/08/22 11:54:20;;;;;;;8.70;7.82;;;;;;;29.28;59.57;93998.78;4988385;28;20222;-65
2022/08/22 11:56:59;;;;;;;12.60;8.60;;;;;;;29.72;58.02;94017.41;5032440;28;20171;-65
2022/08/22 12:00:00;;;;;;;13.02;8.10;;;;;;;29.51;57.83;94013.97;5032372;28;20216;-64
2022/08/22 12:02:36;;;;;;;9.30;7.80;;;;;;;29.71;57.38;94013.19;5014621;28;20198;-65
2022/08/22 12:05:15;;;;;;;10.45;8.52;;;;;;;29.36;58.61;93997.47;5032177;28;20300;-62
2022/08/22 12:07:52;;;;;;;8.95;7.93;;;;;;;29.66;58.29;94008.72;5032220;28;20245;-65
2022/08/22 12:10:34;;;;;;;9.57;7.72;;;;;;;28.71;60.60;93943.94;5032169;28;20206;-61
2022/08/22 12:13:28;;;;;;;10.32;8.27;;;;;;;29.33;59.72;93975.19;5032484;28;20206;-62
2022/08/22 12:16:31;;;;;;;8.43;7.18;;;;;;;30.02;56.41;94038.34;5032003;28;20717;-63
2022/08/22 12:19:17;;;;;;;9.30;7.05;;;;;;;30.31;55.61;94047.25;5032012;28;20378;-62
2022/08/22 12:22:19;;;;;;;8.75;7.03;;;;;;;30.74;53.40;94085.19;5032124;28;20225;-64
2022/08/22 12:25:28;;;;;;;8.98;6.25;;;;;;;29.57;53.39;94065.31;5031941;28;20231;-60